KTOA/TOA METAR and TAF weather

Enter ICAO airport designator
Station Type Date Time Source
KTOA METAR 2021/10/20 02:50 UTC NOAA

KTOA 200250Z 25008KT 10SM SKC 14/12 A3002


Station Type Date Time Source
KTOA Decoded METAR 2021/10/20 02:50 UTC NOAA

Torrance, Zamperini Field Airport, CA, United States (KTOA) 33-48N 118-20W
Oct 19, 2021 - 10:50 PM EDT / 2021.10.20 0250 UTC
Wind: from the WSW (250 degrees) at 9 MPH (8 KT):0
Visibility: 10 mile(s):0
Sky conditions: clear
Temperature: 57 F (14 C)
Dew Point: 53 F (12 C)
Relative Humidity: 87%
Pressure (altimeter): 30.02 in. Hg (1016 hPa)
ob: KTOA 200250Z 25008KT 10SM SKC 14/12 A3002
cycle: 3

Station Type Date Time Source
KTOA TAF UTC NOAA

Error!

Example: see airport list